APL Norway — A8NC4 — position and weather

sailwx.info

Track history (hours):
 
Tides and Currents Weather Stations Pressure Air Temp Water Temp Dewpoint Dewpoint Depression Visibility Wind Speed Wind Dir Waves Ship Positions

APL Norway

Last reported at 2014-Aug-21 11:06 UTC. Time now 2014-Aug-23 19:54 UTC.
Position N 01°15' E 104°07'.

Length 295 m; draft 12.9 m.

Type: Cargo ship. MMSI: 636013456.

Date/timePositionNaut miles runAvg speedWind from/ knotsBaromVisibWave heightAir tempDewpointWater temp
2014-Aug-21 11:06N 01°15' E 104°07'1017.8
2014-Aug-21 10:33N 01°14' E 103°58'7 7.3
2014-Aug-21 09:33N 01°15' E 103°51'1 0.5
2014-Aug-21 08:31N 01°16' E 103°50'0 0.0
2014-Aug-21 07:07N 01°16' E 103°50'0 0.1
2014-Aug-21 06:31N 01°16' E 103°50'0 0.1
2014-Aug-21 05:31N 01°16' E 103°50'0 0.1
2014-Aug-21 04:31N 01°16' E 103°50'0 0.1
2014-Aug-21 03:31N 01°16' E 103°50'0 0.0
2014-Aug-21 02:31N 01°16' E 103°50'0 0.0
2014-Aug-21 01:31N 01°16' E 103°50'0 0.0
2014-Aug-21 00:31N 01°16' E 103°50'0 0.0
2014-Aug-20 23:31N 01°16' E 103°50'0 0.0
2014-Aug-20 22:31N 01°16' E 103°50'0 0.0
2014-Aug-20 21:31N 01°16' E 103°50'0 0.0
2014-Aug-20 20:31N 01°16' E 103°50'0 0.0
2014-Aug-20 19:31N 01°16' E 103°50'0 0.0
2014-Aug-20 18:31N 01°16' E 103°50'0 0.0
2014-Aug-20 17:25N 01°16' E 103°50'0 0.0
2014-Aug-20 16:31N 01°16' E 103°50'0 0.0
2014-Aug-20 15:28N 01°16' E 103°50'0 0.0
2014-Aug-20 14:31N 01°16' E 103°50'0 0.1
2014-Aug-20 13:28N 01°16' E 103°50'0 0.1
2014-Aug-20 12:28N 01°16' E 103°50'0 0.0
2014-Aug-20 11:31N 01°16' E 103°50'0 0.0
2014-Aug-20 10:13N 01°16' E 103°50'0 0.0
2014-Aug-20 09:31N 01°16' E 103°50'0 0.0
2014-Aug-20 08:31N 01°16' E 103°50'0 0.1
2014-Aug-20 07:31N 01°16' E 103°50'0 0.1
2014-Aug-20 06:31N 01°16' E 103°50'0 0.1
2014-Aug-20 05:28N 01°16' E 103°50'0 0.0
2014-Aug-20 04:31N 01°16' E 103°50'0 0.1
2014-Aug-20 03:31N 01°16' E 103°50'0 0.0
2014-Aug-20 02:25N 01°16' E 103°50'0 0.1
2014-Aug-20 01:31N 01°16' E 103°50'0 0.1
2014-Aug-20 00:25N 01°16' E 103°50'0 0.0
2014-Aug-19 23:31N 01°16' E 103°50'0 0.0
2014-Aug-19 22:31N 01°16' E 103°50'0 0.0
2014-Aug-19 21:31N 01°16' E 103°50'0 0.0
2014-Aug-19 20:28N 01°16' E 103°50'0 0.0
2014-Aug-19 19:31N 01°16' E 103°50'0 0.0
2014-Aug-19 18:31N 01°16' E 103°50'0 0.0
2014-Aug-19 17:31N 01°16' E 103°50'0 0.1
2014-Aug-19 16:31N 01°16' E 103°50'0 0.1
2014-Aug-19 15:31N 01°16' E 103°50'0 0.0
2014-Aug-19 14:28N 01°16' E 103°50'0 0.0
2014-Aug-19 13:28N 01°16' E 103°50'0 0.0
2014-Aug-19 12:31N 01°16' E 103°50'0 0.0
2014-Aug-19 11:25N 01°16' E 103°50'0 0.1
2014-Aug-19 10:33N 01°16' E 103°50'3 2.7
2014-Aug-19 09:34N 01°14' E 103°53'1 0.6
2014-Aug-19 08:19N 01°15' E 103°53'0 0.0
2014-Aug-19 07:31N 01°15' E 103°53'0 0.0
2014-Aug-19 06:31N 01°15' E 103°53'0 0.1
2014-Aug-19 05:31N 01°15' E 103°53'0 0.0
2014-Aug-19 04:31N 01°15' E 103°53'0 0.0
2014-Aug-19 03:25N 01°15' E 103°53'0 0.0
2014-Aug-19 02:31N 01°15' E 103°53'0 0.0
2014-Aug-19 01:31N 01°15' E 103°53'0 0.1
2014-Aug-19 00:31N 01°15' E 103°53'0 0.1
2014-Aug-18 23:19N 01°15' E 103°53'0 0.1
2014-Aug-18 22:31N 01°15' E 103°53'0 0.1
2014-Aug-18 21:31N 01°15' E 103°53'0 0.1
2014-Aug-18 20:31N 01°15' E 103°53'0 0.1
2014-Aug-18 19:31N 01°15' E 103°53'0 0.2
2014-Aug-18 18:31N 01°15' E 103°53'0 0.0
2014-Aug-18 17:28N 01°15' E 103°53'0 0.1
2014-Aug-18 16:31N 01°15' E 103°53'0 0.0
2014-Aug-18 15:31N 01°15' E 103°53'0 0.0
2014-Aug-18 14:31N 01°15' E 103°53'0 0.0
2014-Aug-18 13:31N 01°15' E 103°53'0 0.0
2014-Aug-18 12:31N 01°15' E 103°53'0 0.1
2014-Aug-18 11:31N 01°15' E 103°53'0 0.1
2014-Aug-18 10:33N 01°15' E 103°53'4 4.0
2014-Aug-18 09:33N 01°15' E 103°57'  
2014-Aug-14 08:33N 22°24' E 120°01'1616.3
2014-Aug-14 07:34N 22°33' E 120°16'3 2.7
2014-Aug-14 06:28N 22°34' E 120°19'0 0.0
2014-Aug-14 05:28N 22°34' E 120°19'0 0.0
2014-Aug-14 04:28N 22°34' E 120°19'0 0.0
2014-Aug-14 03:28N 22°34' E 120°19'0 0.0
2014-Aug-14 02:28N 22°34' E 120°19'0 0.0
2014-Aug-14 01:22N 22°34' E 120°19'0 0.0
2014-Aug-14 00:28N 22°34' E 120°19'0 0.0
2014-Aug-13 23:28N 22°34' E 120°19'0 0.0
2014-Aug-13 22:22N 22°34' E 120°19'0 0.0
2014-Aug-13 21:28N 22°34' E 120°19'0 0.0
2014-Aug-13 20:28N 22°34' E 120°19'0 0.0
2014-Aug-13 19:28N 22°34' E 120°19'0 0.0
2014-Aug-13 18:22N 22°34' E 120°19'0 0.0
2014-Aug-13 17:28N 22°34' E 120°19'0 0.0
2014-Aug-13 16:28N 22°34' E 120°19'0 0.0
2014-Aug-13 15:28N 22°34' E 120°19'0 0.0
2014-Aug-13 14:16N 22°34' E 120°19'3 3.6
2014-Aug-13 13:33N 22°32' E 120°17'2 2.4
2014-Aug-13 12:33N 22°32' E 120°14'7 7.4
2014-Aug-13 11:33N 22°24' E 120°15'1110.8
2014-Aug-13 10:33N 22°14' E 120°19'1211.5
2014-Aug-13 09:31N 22°05' E 120°27'  
Track history (hours):
 
Tides and Currents Weather Stations Pressure Air Temp Water Temp Dewpoint Dewpoint Depression Visibility Wind Speed Wind Dir Waves Ship Positions

APL Norway

Last reported at 2014-Aug-21 11:06 UTC. Time now 2014-Aug-23 19:54 UTC.
Position N 01°15' E 104°07'.

Length 295 m; draft 12.9 m.

Type: Cargo ship. MMSI: 636013456.

Date/timePositionNaut miles runAvg speedWind from/ knotsBaromVisibWave heightAir tempDewpointWater temp
2014-Aug-21 11:06N 01°15' E 104°07'1017.8
2014-Aug-21 10:33N 01°14' E 103°58'7 7.3
2014-Aug-21 09:33N 01°15' E 103°51'1 0.5
2014-Aug-21 08:31N 01°16' E 103°50'0 0.0
2014-Aug-21 07:07N 01°16' E 103°50'0 0.1
2014-Aug-21 06:31N 01°16' E 103°50'0 0.1
2014-Aug-21 05:31N 01°16' E 103°50'0 0.1
2014-Aug-21 04:31N 01°16' E 103°50'0 0.1
2014-Aug-21 03:31N 01°16' E 103°50'0 0.0
2014-Aug-21 02:31N 01°16' E 103°50'0 0.0
2014-Aug-21 01:31N 01°16' E 103°50'0 0.0
2014-Aug-21 00:31N 01°16' E 103°50'0 0.0
2014-Aug-20 23:31N 01°16' E 103°50'0 0.0
2014-Aug-20 22:31N 01°16' E 103°50'0 0.0
2014-Aug-20 21:31N 01°16' E 103°50'0 0.0
2014-Aug-20 20:31N 01°16' E 103°50'0 0.0
2014-Aug-20 19:31N 01°16' E 103°50'0 0.0
2014-Aug-20 18:31N 01°16' E 103°50'0 0.0
2014-Aug-20 17:25N 01°16' E 103°50'0 0.0
2014-Aug-20 16:31N 01°16' E 103°50'0 0.0
2014-Aug-20 15:28N 01°16' E 103°50'0 0.0
2014-Aug-20 14:31N 01°16' E 103°50'0 0.1
2014-Aug-20 13:28N 01°16' E 103°50'0 0.1
2014-Aug-20 12:28N 01°16' E 103°50'0 0.0
2014-Aug-20 11:31N 01°16' E 103°50'0 0.0
2014-Aug-20 10:13N 01°16' E 103°50'0 0.0
2014-Aug-20 09:31N 01°16' E 103°50'0 0.0
2014-Aug-20 08:31N 01°16' E 103°50'0 0.1
2014-Aug-20 07:31N 01°16' E 103°50'0 0.1
2014-Aug-20 06:31N 01°16' E 103°50'0 0.1
2014-Aug-20 05:28N 01°16' E 103°50'0 0.0
2014-Aug-20 04:31N 01°16' E 103°50'0 0.1
2014-Aug-20 03:31N 01°16' E 103°50'0 0.0
2014-Aug-20 02:25N 01°16' E 103°50'0 0.1
2014-Aug-20 01:31N 01°16' E 103°50'0 0.1
2014-Aug-20 00:25N 01°16' E 103°50'0 0.0
2014-Aug-19 23:31N 01°16' E 103°50'0 0.0
2014-Aug-19 22:31N 01°16' E 103°50'0 0.0
2014-Aug-19 21:31N 01°16' E 103°50'0 0.0
2014-Aug-19 20:28N 01°16' E 103°50'0 0.0
2014-Aug-19 19:31N 01°16' E 103°50'0 0.0
2014-Aug-19 18:31N 01°16' E 103°50'0 0.0
2014-Aug-19 17:31N 01°16' E 103°50'0 0.1
2014-Aug-19 16:31N 01°16' E 103°50'0 0.1
2014-Aug-19 15:31N 01°16' E 103°50'0 0.0
2014-Aug-19 14:28N 01°16' E 103°50'0 0.0
2014-Aug-19 13:28N 01°16' E 103°50'0 0.0
2014-Aug-19 12:31N 01°16' E 103°50'0 0.0
2014-Aug-19 11:25N 01°16' E 103°50'0 0.1
2014-Aug-19 10:33N 01°16' E 103°50'3 2.7
2014-Aug-19 09:34N 01°14' E 103°53'1 0.6
2014-Aug-19 08:19N 01°15' E 103°53'0 0.0
2014-Aug-19 07:31N 01°15' E 103°53'0 0.0
2014-Aug-19 06:31N 01°15' E 103°53'0 0.1
2014-Aug-19 05:31N 01°15' E 103°53'0 0.0
2014-Aug-19 04:31N 01°15' E 103°53'0 0.0
2014-Aug-19 03:25N 01°15' E 103°53'0 0.0
2014-Aug-19 02:31N 01°15' E 103°53'0 0.0
2014-Aug-19 01:31N 01°15' E 103°53'0 0.1
2014-Aug-19 00:31N 01°15' E 103°53'0 0.1
2014-Aug-18 23:19N 01°15' E 103°53'0 0.1
2014-Aug-18 22:31N 01°15' E 103°53'0 0.1
2014-Aug-18 21:31N 01°15' E 103°53'0 0.1
2014-Aug-18 20:31N 01°15' E 103°53'0 0.1
2014-Aug-18 19:31N 01°15' E 103°53'0 0.2
2014-Aug-18 18:31N 01°15' E 103°53'0 0.0
2014-Aug-18 17:28N 01°15' E 103°53'0 0.1
2014-Aug-18 16:31N 01°15' E 103°53'0 0.0
2014-Aug-18 15:31N 01°15' E 103°53'0 0.0
2014-Aug-18 14:31N 01°15' E 103°53'0 0.0
2014-Aug-18 13:31N 01°15' E 103°53'0 0.0
2014-Aug-18 12:31N 01°15' E 103°53'0 0.1
2014-Aug-18 11:31N 01°15' E 103°53'0 0.1
2014-Aug-18 10:33N 01°15' E 103°53'4 4.0
2014-Aug-18 09:33N 01°15' E 103°57'  
2014-Aug-14 08:33N 22°24' E 120°01'1616.3
2014-Aug-14 07:34N 22°33' E 120°16'3 2.7
2014-Aug-14 06:28N 22°34' E 120°19'0 0.0
2014-Aug-14 05:28N 22°34' E 120°19'0 0.0
2014-Aug-14 04:28N 22°34' E 120°19'0 0.0
2014-Aug-14 03:28N 22°34' E 120°19'0 0.0
2014-Aug-14 02:28N 22°34' E 120°19'0 0.0
2014-Aug-14 01:22N 22°34' E 120°19'0 0.0
2014-Aug-14 00:28N 22°34' E 120°19'0 0.0
2014-Aug-13 23:28N 22°34' E 120°19'0 0.0
2014-Aug-13 22:22N 22°34' E 120°19'0 0.0
2014-Aug-13 21:28N 22°34' E 120°19'0 0.0
2014-Aug-13 20:28N 22°34' E 120°19'0 0.0
2014-Aug-13 19:28N 22°34' E 120°19'0 0.0
2014-Aug-13 18:22N 22°34' E 120°19'0 0.0
2014-Aug-13 17:28N 22°34' E 120°19'0 0.0
2014-Aug-13 16:28N 22°34' E 120°19'0 0.0
2014-Aug-13 15:28N 22°34' E 120°19'0 0.0
2014-Aug-13 14:16N 22°34' E 120°19'3 3.6
2014-Aug-13 13:33N 22°32' E 120°17'2 2.4
2014-Aug-13 12:33N 22°32' E 120°14'7 7.4
2014-Aug-13 11:33N 22°24' E 120°15'1110.8
2014-Aug-13 10:33N 22°14' E 120°19'1211.5
2014-Aug-13 09:31N 22°05' E 120°27'  

Dump ship's entire track history